sensor_id;sensor_type;location;lat;lon;timestamp;temperature;humidity
34153;DHT22;20426;48.372;10.888;2022-09-30T00:00:21;9.90;99.90
34153;DHT22;20426;48.372;10.888;2022-09-30T00:00:52;9.90;99.90
34153;DHT22;20426;48.372;10.888;2022-09-30T00:01:25;9.90;99.90
34153;DHT22;20426;48.372;10.888;2022-09-30T00:01:56;9.90;99.90
34153;DHT22;20426;48.372;10.888;2022-09-30T00:02:27;9.90;99.90
34153;DHT22;20426;48.372;10.888;2022-09-30T00:02:58;9.90;99.90
34153;DHT22;20426;48.372;10.888;2022-09-30T00:03:29;9.90;99.90
34153;DHT22;20426;48.372;10.888;2022-09-30T00:04:00;9.90;99.90
34153;DHT22;20426;48.372;10.888;2022-09-30T00:04:31;9.90;99.90
34153;DHT22;20426;48.372;10.888;2022-09-30T00:05:01;9.90;99.90
34153;DHT22;20426;48.372;10.888;2022-09-30T00:05:32;9.90;99.90
34153;DHT22;20426;48.372;10.888;2022-09-30T00:06:05;9.90;99.90
34153;DHT22;20426;48.372;10.888;2022-09-30T00:06:36;9.90;99.90
34153;DHT22;20426;48.372;10.888;2022-09-30T00:07:07;9.90;99.90
34153;DHT22;20426;48.372;10.888;2022-09-30T00:07:37;9.80;99.90
34153;DHT22;20426;48.372;10.888;2022-09-30T00:08:08;9.80;99.90
34153;DHT22;20426;48.372;10.888;2022-09-30T00:08:39;9.80;99.90
34153;DHT22;20426;48.372;10.888;2022-09-30T00:09:10;9.80;99.90
34153;DHT22;20426;48.372;10.888;2022-09-30T00:09:42;9.80;99.90
34153;DHT22;20426;48.372;10.888;2022-09-30T00:10:13;9.90;99.90
34153;DHT22;20426;48.372;10.888;2022-09-30T00:10:46;9.90;99.90
34153;DHT22;20426;48.372;10.888;2022-09-30T00:11:20;9.90;99.90
34153;DHT22;20426;48.372;10.888;2022-09-30T00:11:51;9.90;99.90
34153;DHT22;20426;48.372;10.888;2022-09-30T00:12:21;9.90;99.90
34153;DHT22;20426;48.372;10.888;2022-09-30T00:12:52;9.90;99.90
34153;DHT22;20426;48.372;10.888;2022-09-30T00:13:23;10.00;99.90
34153;DHT22;20426;48.372;10.888;2022-09-30T00:13:54;10.00;99.90
34153;DHT22;20426;48.372;10.888;2022-09-30T00:14:25;10.00;99.90
34153;DHT22;20426;48.372;10.888;2022-09-30T00:14:56;10.00;99.90
34153;DHT22;20426;48.372;10.888;2022-09-30T00:15:26;10.00;99.90
34153;DHT22;20426;48.372;10.888;2022-09-30T00:15:58;10.00;99.90
34153;DHT22;20426;48.372;10.888;2022-09-30T00:16:31;10.00;99.90
34153;DHT22;20426;48.372;10.888;2022-09-30T00:17:03;10.00;99.90
34153;DHT22;20426;48.372;10.888;2022-09-30T00:17:34;10.00;99.90
34153;DHT22;20426;48.372;10.888;2022-09-30T00:18:04;9.90;99.90
34153;DHT22;20426;48.372;10.888;2022-09-30T00:18:36;9.90;99.90
34153;DHT22;20426;48.372;10.888;2022-09-30T00:19:07;9.90;99.90
34153;DHT22;20426;48.372;10.888;2022-09-30T00:19:38;9.90;99.90
34153;DHT22;20426;48.372;10.888;2022-09-30T00:20:08;9.80;99.90
34153;DHT22;20426;48.372;10.888;2022-09-30T00:20:40;9.80;99.90
34153;DHT22;20426;48.372;10.888;2022-09-30T00:21:12;9.80;99.90
34153;DHT22;20426;48.372;10.888;2022-09-30T00:21:43;9.80;99.90
34153;DHT22;20426;48.372;10.888;2022-09-30T00:22:14;9.80;99.90
34153;DHT22;20426;48.372;10.888;2022-09-30T00:22:45;9.80;99.90
34153;DHT22;20426;48.372;10.888;2022-09-30T00:23:16;9.80;99.90
34153;DHT22;20426;48.372;10.888;2022-09-30T00:23:46;9.80;99.90
34153;DHT22;20426;48.372;10.888;2022-09-30T00:24:17;9.80;99.90
34153;DHT22;20426;48.372;10.888;2022-09-30T00:24:48;9.70;99.90
34153;DHT22;20426;48.372;10.888;2022-09-30T00:25:20;9.70;99.90
34153;DHT22;20426;48.372;10.888;2022-09-30T00:25:59;9.70;99.90
34153;DHT22;20426;48.372;10.888;2022-09-30T00:26:31;9.70;99.90
34153;DHT22;20426;48.372;10.888;2022-09-30T00:27:02;9.70;99.90
34153;DHT22;20426;48.372;10.888;2022-09-30T00:27:33;9.70;99.90
34153;DHT22;20426;48.372;10.888;2022-09-30T00:28:03;9.70;99.90
34153;DHT22;20426;48.372;10.888;2022-09-30T00:28:38;9.70;99.90
34153;DHT22;20426;48.372;10.888;2022-09-30T00:29:09;9.70;99.90
34153;DHT22;20426;48.372;10.888;2022-09-30T00:29:40;9.70;99.90
34153;DHT22;20426;48.372;10.888;2022-09-30T00:30:11;9.70;99.90
34153;DHT22;20426;48.372;10.888;2022-09-30T00:30:42;9.70;99.90
34153;DHT22;20426;48.372;10.888;2022-09-30T00:31:15;9.70;99.90
34153;DHT22;20426;48.372;10.888;2022-09-30T00:31:46;9.70;99.90
34153;DHT22;20426;48.372;10.888;2022-09-30T00:32:17;9.70;99.90
34153;DHT22;20426;48.372;10.888;2022-09-30T00:32:47;9.70;99.90
34153;DHT22;20426;48.372;10.888;2022-09-30T00:33:18;9.60;99.90
34153;DHT22;20426;48.372;10.888;2022-09-30T00:33:49;9.70;99.90
34153;DHT22;20426;48.372;10.888;2022-09-30T00:34:36;9.70;99.90
34153;DHT22;20426;48.372;10.888;2022-09-30T00:35:07;9.60;99.90
34153;DHT22;20426;48.372;10.888;2022-09-30T00:35:37;9.60;99.90
34153;DHT22;20426;48.372;10.888;2022-09-30T00:36:09;9.70;99.90
34153;DHT22;20426;48.372;10.888;2022-09-30T00:37:10;9.70;99.90
34153;DHT22;20426;48.372;10.888;2022-09-30T00:37:44;9.70;99.90
34153;DHT22;20426;48.372;10.888;2022-09-30T00:38:15;9.70;99.90
34153;DHT22;20426;48.372;10.888;2022-09-30T00:38:45;9.70;99.90
34153;DHT22;20426;48.372;10.888;2022-09-30T00:39:48;9.70;99.90
34153;DHT22;20426;48.372;10.888;2022-09-30T00:40:19;9.70;99.90
34153;DHT22;20426;48.372;10.888;2022-09-30T00:40:50;9.70;99.90
34153;DHT22;20426;48.372;10.888;2022-09-30T00:41:21;9.70;99.90
34153;DHT22;20426;48.372;10.888;2022-09-30T00:42:00;9.70;99.90
34153;DHT22;20426;48.372;10.888;2022-09-30T00:42:31;9.70;99.90
34153;DHT22;20426;48.372;10.888;2022-09-30T00:43:01;9.70;99.90
34153;DHT22;20426;48.372;10.888;2022-09-30T00:43:44;9.70;99.90
34153;DHT22;20426;48.372;10.888;2022-09-30T00:44:51;9.70;99.90
34153;DHT22;20426;48.372;10.888;2022-09-30T00:45:26;9.70;99.90
34153;DHT22;20426;48.372;10.888;2022-09-30T00:45:58;9.70;99.90
34153;DHT22;20426;48.372;10.888;2022-09-30T00:46:36;9.70;99.90
34153;DHT22;20426;48.372;10.888;2022-09-30T00:47:35;9.70;99.90
34153;DHT22;20426;48.372;10.888;2022-09-30T00:48:11;9.70;99.90
34153;DHT22;20426;48.372;10.888;2022-09-30T00:48:46;9.70;99.90
34153;DHT22;20426;48.372;10.888;2022-09-30T00:49:23;9.70;99.90
34153;DHT22;20426;48.372;10.888;2022-09-30T00:49:57;9.70;99.90
34153;DHT22;20426;48.372;10.888;2022-09-30T00:50:41;9.70;99.90
34153;DHT22;20426;48.372;10.888;2022-09-30T00:51:14;9.60;99.90
34153;DHT22;20426;48.372;10.888;2022-09-30T00:51:49;9.70;99.90
34153;DHT22;20426;48.372;10.888;2022-09-30T00:52:20;9.60;99.90
34153;DHT22;20426;48.372;10.888;2022-09-30T00:53:40;9.60;99.90
34153;DHT22;20426;48.372;10.888;2022-09-30T00:54:20;9.60;99.90
34153;DHT22;20426;48.372;10.888;2022-09-30T00:54:54;9.60;99.90
34153;DHT22;20426;48.372;10.888;2022-09-30T00:56:22;9.60;99.90
34153;DHT22;20426;48.372;10.888;2022-09-30T00:56:57;9.60;99.90
34153;DHT22;20426;48.372;10.888;2022-09-30T00:57:28;9.60;99.90
34153;DHT22;20426;48.372;10.888;2022-09-30T00:58:00;9.60;99.90
34153;DHT22;20426;48.372;10.888;2022-09-30T00:58:40;9.60;99.90
34153;DHT22;20426;48.372;10.888;2022-09-30T00:59:18;9.60;99.90
34153;DHT22;20426;48.372;10.888;2022-09-30T00:59:50;9.60;99.90
34153;DHT22;20426;48.372;10.888;2022-09-30T01:00:21;9.60;99.90
34153;DHT22;20426;48.372;10.888;2022-09-30T01:00:52;9.60;99.90
34153;DHT22;20426;48.372;10.888;2022-09-30T01:01:23;9.60;99.90
34153;DHT22;20426;48.372;10.888;2022-09-30T01:01:54;9.50;99.90
34153;DHT22;20426;48.372;10.888;2022-09-30T01:02:25;9.50;99.90
34153;DHT22;20426;48.372;10.888;2022-09-30T01:02:56;9.60;99.90
34153;DHT22;20426;48.372;10.888;2022-09-30T01:03:38;9.60;99.90
34153;DHT22;20426;48.372;10.888;2022-09-30T01:04:19;9.60;99.90
34153;DHT22;20426;48.372;10.888;2022-09-30T01:04:51;9.60;99.90
34153;DHT22;20426;48.372;10.888;2022-09-30T01:05:25;9.60;99.90
34153;DHT22;20426;48.372;10.888;2022-09-30T01:05:56;9.60;99.90
34153;DHT22;20426;48.372;10.888;2022-09-30T01:06:27;9.60;99.90
34153;DHT22;20426;48.372;10.888;2022-09-30T01:07:02;9.60;99.90
34153;DHT22;20426;48.372;10.888;2022-09-30T01:07:34;9.50;99.90
34153;DHT22;20426;48.372;10.888;2022-09-30T01:08:07;9.50;99.90
34153;DHT22;20426;48.372;10.888;2022-09-30T01:08:40;9.50;99.90
34153;DHT22;20426;48.372;10.888;2022-09-30T01:09:10;9.50;99.90
34153;DHT22;20426;48.372;10.888;2022-09-30T01:09:42;9.50;99.90
34153;DHT22;20426;48.372;10.888;2022-09-30T01:10:14;9.50;99.90
34153;DHT22;20426;48.372;10.888;2022-09-30T01:10:45;9.40;99.90
34153;DHT22;20426;48.372;10.888;2022-09-30T01:11:16;9.40;99.90
34153;DHT22;20426;48.372;10.888;2022-09-30T01:11:47;9.40;99.90
34153;DHT22;20426;48.372;10.888;2022-09-30T01:12:20;9.50;99.90
34153;DHT22;20426;48.372;10.888;2022-09-30T01:12:52;9.40;99.90
34153;DHT22;20426;48.372;10.888;2022-09-30T01:13:24;9.40;99.90
34153;DHT22;20426;48.372;10.888;2022-09-30T01:14:01;9.40;99.90
34153;DHT22;20426;48.372;10.888;2022-09-30T01:14:34;9.40;99.90
34153;DHT22;20426;48.372;10.888;2022-09-30T01:15:06;9.40;99.90
34153;DHT22;20426;48.372;10.888;2022-09-30T01:16:53;9.40;99.90
34153;DHT22;20426;48.372;10.888;2022-09-30T01:17:49;9.40;99.90
34153;DHT22;20426;48.372;10.888;2022-09-30T01:18:28;9.40;99.90
34153;DHT22;20426;48.372;10.888;2022-09-30T01:23:51;9.40;99.90
34153;DHT22;20426;48.372;10.888;2022-09-30T01:24:45;9.40;99.90
34153;DHT22;20426;48.372;10.888;2022-09-30T01:26:28;9.30;99.90
34153;DHT22;20426;48.372;10.888;2022-09-30T01:28:45;9.30;99.90
34153;DHT22;20426;48.372;10.888;2022-09-30T01:30:20;9.30;99.90
34153;DHT22;20426;48.372;10.888;2022-09-30T01:33:54;9.30;99.90
34153;DHT22;20426;48.372;10.888;2022-09-30T01:36:02;9.20;99.90
34153;DHT22;20426;48.372;10.888;2022-09-30T01:38:44;9.30;99.90
34153;DHT22;20426;48.372;10.888;2022-09-30T01:39:40;9.30;99.90
34153;DHT22;20426;48.372;10.888;2022-09-30T01:40:17;9.30;99.90
34153;DHT22;20426;48.372;10.888;2022-09-30T01:42:07;9.30;99.90
34153;DHT22;20426;48.372;10.888;2022-09-30T01:43:03;9.40;99.90
34153;DHT22;20426;48.372;10.888;2022-09-30T01:43:42;9.40;99.90
34153;DHT22;20426;48.372;10.888;2022-09-30T01:44:32;9.40;99.90
34153;DHT22;20426;48.372;10.888;2022-09-30T01:45:41;9.40;99.90
34153;DHT22;20426;48.372;10.888;2022-09-30T01:46:47;9.30;99.90
34153;DHT22;20426;48.372;10.888;2022-09-30T01:47:25;9.30;99.90
34153;DHT22;20426;48.372;10.888;2022-09-30T01:48:11;9.30;99.90
34153;DHT22;20426;48.372;10.888;2022-09-30T01:51:19;9.20;99.90
34153;DHT22;20426;48.372;10.888;2022-09-30T01:52:15;9.20;99.90
34153;DHT22;20426;48.372;10.888;2022-09-30T01:53:02;9.20;99.90
34153;DHT22;20426;48.372;10.888;2022-09-30T01:55:21;9.30;99.90
34153;DHT22;20426;48.372;10.888;2022-09-30T01:55:59;9.20;99.90
34153;DHT22;20426;48.372;10.888;2022-09-30T01:56:41;9.30;99.90
34153;DHT22;20426;48.372;10.888;2022-09-30T01:57:18;9.30;99.90
34153;DHT22;20426;48.372;10.888;2022-09-30T01:58:11;9.30;99.90
34153;DHT22;20426;48.372;10.888;2022-09-30T01:59:36;9.30;99.90
34153;DHT22;20426;48.372;10.888;2022-09-30T02:00:12;9.30;99.90
34153;DHT22;20426;48.372;10.888;2022-09-30T02:00:46;9.30;99.90
34153;DHT22;20426;48.372;10.888;2022-09-30T02:01:25;9.30;99.90
34153;DHT22;20426;48.372;10.888;2022-09-30T02:01:58;9.20;99.90
34153;DHT22;20426;48.372;10.888;2022-09-30T02:02:31;9.20;99.90
34153;DHT22;20426;48.372;10.888;2022-09-30T02:04:08;9.20;99.90
34153;DHT22;20426;48.372;10.888;2022-09-30T02:04:53;9.20;99.90
34153;DHT22;20426;48.372;10.888;2022-09-30T02:05:40;9.20;99.90
34153;DHT22;20426;48.372;10.888;2022-09-30T02:06:18;9.20;99.90
34153;DHT22;20426;48.372;10.888;2022-09-30T02:06:53;9.20;99.90
34153;DHT22;20426;48.372;10.888;2022-09-30T02:07:34;9.20;99.90
34153;DHT22;20426;48.372;10.888;2022-09-30T02:08:25;9.20;99.90
34153;DHT22;20426;48.372;10.888;2022-09-30T02:09:02;9.10;99.90
34153;DHT22;20426;48.372;10.888;2022-09-30T02:09:39;9.10;99.90
34153;DHT22;20426;48.372;10.888;2022-09-30T02:10:17;9.10;99.90
34153;DHT22;20426;48.372;10.888;2022-09-30T02:10:57;9.10;99.90
34153;DHT22;20426;48.372;10.888;2022-09-30T02:11:32;9.10;99.90
34153;DHT22;20426;48.372;10.888;2022-09-30T02:12:07;9.10;99.90
34153;DHT22;20426;48.372;10.888;2022-09-30T02:12:45;9.10;99.90
34153;DHT22;20426;48.372;10.888;2022-09-30T02:13:26;9.10;99.90
34153;DHT22;20426;48.372;10.888;2022-09-30T02:15:33;9.10;99.90
34153;DHT22;20426;48.372;10.888;2022-09-30T02:16:07;9.10;99.90
34153;DHT22;20426;48.372;10.888;2022-09-30T02:17:55;9.10;99.90
34153;DHT22;20426;48.372;10.888;2022-09-30T02:18:37;9.10;99.90
34153;DHT22;20426;48.372;10.888;2022-09-30T02:20:08;9.20;99.90
34153;DHT22;20426;48.372;10.888;2022-09-30T02:20:41;9.20;99.90
34153;DHT22;20426;48.372;10.888;2022-09-30T02:21:16;9.20;99.90
34153;DHT22;20426;48.372;10.888;2022-09-30T02:21:56;9.20;99.90
34153;DHT22;20426;48.372;10.888;2022-09-30T02:22:32;9.20;99.90
34153;DHT22;20426;48.372;10.888;2022-09-30T02:23:16;9.20;99.90
34153;DHT22;20426;48.372;10.888;2022-09-30T02:23:52;9.20;99.90
34153;DHT22;20426;48.372;10.888;2022-09-30T02:24:24;9.20;99.90
34153;DHT22;20426;48.372;10.888;2022-09-30T02:25:00;9.20;99.90
34153;DHT22;20426;48.372;10.888;2022-09-30T02:25:48;9.20;99.90
34153;DHT22;20426;48.372;10.888;2022-09-30T02:26:23;9.20;99.90
34153;DHT22;20426;48.372;10.888;2022-09-30T02:26:56;9.20;99.90
34153;DHT22;20426;48.372;10.888;2022-09-30T02:27:35;9.20;99.90
34153;DHT22;20426;48.372;10.888;2022-09-30T02:28:18;9.20;99.90
34153;DHT22;20426;48.372;10.888;2022-09-30T02:29:00;9.20;99.90
34153;DHT22;20426;48.372;10.888;2022-09-30T02:29:36;9.20;99.90
34153;DHT22;20426;48.372;10.888;2022-09-30T02:30:09;9.10;99.90
34153;DHT22;20426;48.372;10.888;2022-09-30T02:30:45;9.20;99.90
34153;DHT22;20426;48.372;10.888;2022-09-30T02:31:17;9.20;99.90
34153;DHT22;20426;48.372;10.888;2022-09-30T02:31:55;9.10;99.90
34153;DHT22;20426;48.372;10.888;2022-09-30T02:32:34;9.10;99.90
34153;DHT22;20426;48.372;10.888;2022-09-30T02:33:13;9.10;99.90
34153;DHT22;20426;48.372;10.888;2022-09-30T02:33:51;9.10;99.90
34153;DHT22;20426;48.372;10.888;2022-09-30T02:34:28;9.10;99.90
34153;DHT22;20426;48.372;10.888;2022-09-30T02:35:11;9.10;99.90
34153;DHT22;20426;48.372;10.888;2022-09-30T02:35:53;9.10;99.90
34153;DHT22;20426;48.372;10.888;2022-09-30T02:37:06;9.10;99.90
34153;DHT22;20426;48.372;10.888;2022-09-30T02:37:43;9.10;99.90
34153;DHT22;20426;48.372;10.888;2022-09-30T02:38:18;9.10;99.90
34153;DHT22;20426;48.372;10.888;2022-09-30T02:38:58;9.10;99.90
34153;DHT22;20426;48.372;10.888;2022-09-30T02:39:40;9.10;99.90
34153;DHT22;20426;48.372;10.888;2022-09-30T02:40:39;9.10;99.90
34153;DHT22;20426;48.372;10.888;2022-09-30T02:41:15;9.10;99.90
34153;DHT22;20426;48.372;10.888;2022-09-30T02:41:54;9.10;99.90
34153;DHT22;20426;48.372;10.888;2022-09-30T02:42:29;9.10;99.90
34153;DHT22;20426;48.372;10.888;2022-09-30T02:43:01;9.10;99.90
34153;DHT22;20426;48.372;10.888;2022-09-30T02:43:33;9.10;99.90
34153;DHT22;20426;48.372;10.888;2022-09-30T02:44:04;9.10;99.90
34153;DHT22;20426;48.372;10.888;2022-09-30T02:44:36;9.10;99.90
34153;DHT22;20426;48.372;10.888;2022-09-30T02:45:10;9.00;99.90
34153;DHT22;20426;48.372;10.888;2022-09-30T02:48:21;9.00;99.90
34153;DHT22;20426;48.372;10.888;2022-09-30T02:50:31;9.00;99.90
34153;DHT22;20426;48.372;10.888;2022-09-30T02:51:25;9.10;99.90
34153;DHT22;20426;48.372;10.888;2022-09-30T02:52:30;9.10;99.90
34153;DHT22;20426;48.372;10.888;2022-09-30T02:53:28;9.10;99.90
34153;DHT22;20426;48.372;10.888;2022-09-30T02:54:24;9.10;99.90
34153;DHT22;20426;48.372;10.888;2022-09-30T02:56:28;9.10;99.90
34153;DHT22;20426;48.372;10.888;2022-09-30T02:57:13;9.10;99.90
34153;DHT22;20426;48.372;10.888;2022-09-30T02:58:13;9.10;99.90
34153;DHT22;20426;48.372;10.888;2022-09-30T02:58:46;9.10;99.90
34153;DHT22;20426;48.372;10.888;2022-09-30T02:59:17;9.10;99.90
34153;DHT22;20426;48.372;10.888;2022-09-30T02:59:50;9.10;99.90
34153;DHT22;20426;48.372;10.888;2022-09-30T03:00:22;9.10;99.90
34153;DHT22;20426;48.372;10.888;2022-09-30T03:00:53;9.10;99.90
34153;DHT22;20426;48.372;10.888;2022-09-30T03:01:24;9.10;99.90
34153;DHT22;20426;48.372;10.888;2022-09-30T03:01:55;9.20;99.90
34153;DHT22;20426;48.372;10.888;2022-09-30T03:02:27;9.20;99.90
34153;DHT22;20426;48.372;10.888;2022-09-30T03:03:03;9.20;99.90
34153;DHT22;20426;48.372;10.888;2022-09-30T03:04:22;9.20;99.90
34153;DHT22;20426;48.372;10.888;2022-09-30T03:04:54;9.20;99.90
34153;DHT22;20426;48.372;10.888;2022-09-30T03:05:26;9.20;99.90
34153;DHT22;20426;48.372;10.888;2022-09-30T03:05:57;9.20;99.90
34153;DHT22;20426;48.372;10.888;2022-09-30T03:06:28;9.20;99.90
34153;DHT22;20426;48.372;10.888;2022-09-30T03:06:59;9.20;99.90
34153;DHT22;20426;48.372;10.888;2022-09-30T03:07:30;9.20;99.90
34153;DHT22;20426;48.372;10.888;2022-09-30T03:08:01;9.20;99.90
34153;DHT22;20426;48.372;10.888;2022-09-30T03:08:32;9.20;99.90
34153;DHT22;20426;48.372;10.888;2022-09-30T03:09:03;9.20;99.90
34153;DHT22;20426;48.372;10.888;2022-09-30T03:09:34;9.20;99.90
34153;DHT22;20426;48.372;10.888;2022-09-30T03:10:16;9.20;99.90
34153;DHT22;20426;48.372;10.888;2022-09-30T03:10:49;9.30;99.90
34153;DHT22;20426;48.372;10.888;2022-09-30T03:11:23;9.30;99.90
34153;DHT22;20426;48.372;10.888;2022-09-30T03:12:03;9.30;99.90
34153;DHT22;20426;48.372;10.888;2022-09-30T03:13:24;9.30;99.90
34153;DHT22;20426;48.372;10.888;2022-09-30T03:14:40;9.30;99.90
34153;DHT22;20426;48.372;10.888;2022-09-30T03:15:32;9.30;99.90
34153;DHT22;20426;48.372;10.888;2022-09-30T03:22:49;9.30;99.90
34153;DHT22;20426;48.372;10.888;2022-09-30T03:24:21;9.30;99.90
34153;DHT22;20426;48.372;10.888;2022-09-30T03:27:12;9.30;99.90
34153;DHT22;20426;48.372;10.888;2022-09-30T03:30:10;9.30;99.90
34153;DHT22;20426;48.372;10.888;2022-09-30T03:30:48;9.30;99.90
34153;DHT22;20426;48.372;10.888;2022-09-30T03:31:31;9.30;99.90
34153;DHT22;20426;48.372;10.888;2022-09-30T03:33:15;9.20;99.90
34153;DHT22;20426;48.372;10.888;2022-09-30T03:34:00;9.30;99.90
34153;DHT22;20426;48.372;10.888;2022-09-30T03:36:26;9.20;99.90
34153;DHT22;20426;48.372;10.888;2022-09-30T03:37:22;9.20;99.90
34153;DHT22;20426;48.372;10.888;2022-09-30T03:38:46;9.20;99.90
34153;DHT22;20426;48.372;10.888;2022-09-30T03:40:05;9.20;99.90
34153;DHT22;20426;48.372;10.888;2022-09-30T03:42:14;9.20;99.90
34153;DHT22;20426;48.372;10.888;2022-09-30T03:43:35;9.20;99.90
34153;DHT22;20426;48.372;10.888;2022-09-30T03:43:47;9.20;99.90
34153;DHT22;20426;48.372;10.888;2022-09-30T03:44:31;9.20;99.90
34153;DHT22;20426;48.372;10.888;2022-09-30T03:45:16;9.20;99.90
34153;DHT22;20426;48.372;10.888;2022-09-30T03:46:31;9.20;99.90
34153;DHT22;20426;48.372;10.888;2022-09-30T03:47:07;9.20;99.90
34153;DHT22;20426;48.372;10.888;2022-09-30T03:47:46;9.20;99.90
34153;DHT22;20426;48.372;10.888;2022-09-30T03:48:19;9.30;99.90
34153;DHT22;20426;48.372;10.888;2022-09-30T03:48:53;9.30;99.90
34153;DHT22;20426;48.372;10.888;2022-09-30T03:49:32;9.30;99.90
34153;DHT22;20426;48.372;10.888;2022-09-30T03:50:07;9.20;99.90
34153;DHT22;20426;48.372;10.888;2022-09-30T03:50:40;9.30;99.90
34153;DHT22;20426;48.372;10.888;2022-09-30T03:51:12;9.20;99.90
34153;DHT22;20426;48.372;10.888;2022-09-30T03:51:45;9.30;99.90
34153;DHT22;20426;48.372;10.888;2022-09-30T03:52:16;9.30;99.90
34153;DHT22;20426;48.372;10.888;2022-09-30T03:52:48;9.30;99.90
34153;DHT22;20426;48.372;10.888;2022-09-30T03:53:19;9.30;99.90
34153;DHT22;20426;48.372;10.888;2022-09-30T03:53:50;9.30;99.90
34153;DHT22;20426;48.372;10.888;2022-09-30T03:54:22;9.30;99.90
34153;DHT22;20426;48.372;10.888;2022-09-30T03:54:56;9.30;99.90
34153;DHT22;20426;48.372;10.888;2022-09-30T03:55:28;9.30;99.90
34153;DHT22;20426;48.372;10.888;2022-09-30T03:55:59;9.30;99.90
34153;DHT22;20426;48.372;10.888;2022-09-30T03:56:32;9.30;99.90
34153;DHT22;20426;48.372;10.888;2022-09-30T03:57:03;9.30;99.90
34153;DHT22;20426;48.372;10.888;2022-09-30T03:57:34;9.30;99.90
34153;DHT22;20426;48.372;10.888;2022-09-30T03:58:05;9.30;99.90
34153;DHT22;20426;48.372;10.888;2022-09-30T03:58:42;9.30;99.90
34153;DHT22;20426;48.372;10.888;2022-09-30T03:59:24;9.30;99.90
34153;DHT22;20426;48.372;10.888;2022-09-30T03:59:57;9.30;99.90
34153;DHT22;20426;48.372;10.888;2022-09-30T04:00:28;9.30;99.90
34153;DHT22;20426;48.372;10.888;2022-09-30T04:00:59;9.30;99.90
34153;DHT22;20426;48.372;10.888;2022-09-30T04:01:30;9.20;99.90
34153;DHT22;20426;48.372;10.888;2022-09-30T04:02:01;9.20;99.90
34153;DHT22;20426;48.372;10.888;2022-09-30T04:02:32;9.20;99.90
34153;DHT22;20426;48.372;10.888;2022-09-30T04:03:02;9.20;99.90
34153;DHT22;20426;48.372;10.888;2022-09-30T04:03:33;9.20;99.90
34153;DHT22;20426;48.372;10.888;2022-09-30T04:04:04;9.20;99.90
34153;DHT22;20426;48.372;10.888;2022-09-30T04:04:35;9.20;99.90
34153;DHT22;20426;48.372;10.888;2022-09-30T04:05:07;9.20;99.90
34153;DHT22;20426;48.372;10.888;2022-09-30T04:05:38;9.20;99.90
34153;DHT22;20426;48.372;10.888;2022-09-30T04:06:12;9.20;99.90
34153;DHT22;20426;48.372;10.888;2022-09-30T04:06:43;9.30;99.90
34153;DHT22;20426;48.372;10.888;2022-09-30T04:07:13;9.30;99.90
34153;DHT22;20426;48.372;10.888;2022-09-30T04:07:45;9.30;99.90
34153;DHT22;20426;48.372;10.888;2022-09-30T04:08:15;9.30;99.90
34153;DHT22;20426;48.372;10.888;2022-09-30T04:08:46;9.30;99.90
34153;DHT22;20426;48.372;10.888;2022-09-30T04:09:17;9.30;99.90
34153;DHT22;20426;48.372;10.888;2022-09-30T04:09:48;9.30;99.90
34153;DHT22;20426;48.372;10.888;2022-09-30T04:10:18;9.30;99.90
34153;DHT22;20426;48.372;10.888;2022-09-30T04:10:49;9.30;99.90
34153;DHT22;20426;48.372;10.888;2022-09-30T04:11:20;9.30;99.90
34153;DHT22;20426;48.372;10.888;2022-09-30T04:11:51;9.30;99.90
34153;DHT22;20426;48.372;10.888;2022-09-30T04:12:21;9.30;99.90
34153;DHT22;20426;48.372;10.888;2022-09-30T04:12:53;9.30;99.90
34153;DHT22;20426;48.372;10.888;2022-09-30T04:13:24;9.40;99.90
34153;DHT22;20426;48.372;10.888;2022-09-30T04:13:55;9.30;99.90
34153;DHT22;20426;48.372;10.888;2022-09-30T04:14:25;9.30;99.90
34153;DHT22;20426;48.372;10.888;2022-09-30T04:14:56;9.30;99.90
34153;DHT22;20426;48.372;10.888;2022-09-30T04:15:27;9.30;99.90
34153;DHT22;20426;48.372;10.888;2022-09-30T04:15:57;9.30;99.90
34153;DHT22;20426;48.372;10.888;2022-09-30T04:16:29;9.30;99.90
34153;DHT22;20426;48.372;10.888;2022-09-30T04:17:01;9.30;99.90
34153;DHT22;20426;48.372;10.888;2022-09-30T04:17:32;9.30;99.90
34153;DHT22;20426;48.372;10.888;2022-09-30T04:18:03;9.30;99.90
34153;DHT22;20426;48.372;10.888;2022-09-30T04:18:36;9.30;99.90
34153;DHT22;20426;48.372;10.888;2022-09-30T04:19:07;9.30;99.90
34153;DHT22;20426;48.372;10.888;2022-09-30T04:19:38;9.30;99.90
34153;DHT22;20426;48.372;10.888;2022-09-30T04:20:10;9.30;99.90
34153;DHT22;20426;48.372;10.888;2022-09-30T04:20:42;9.30;99.90
34153;DHT22;20426;48.372;10.888;2022-09-30T04:21:14;9.30;99.90
34153;DHT22;20426;48.372;10.888;2022-09-30T04:21:44;9.30;99.90
34153;DHT22;20426;48.372;10.888;2022-09-30T04:22:15;9.30;99.90
34153;DHT22;20426;48.372;10.888;2022-09-30T04:22:46;9.30;99.90
34153;DHT22;20426;48.372;10.888;2022-09-30T04:23:16;9.30;99.90
34153;DHT22;20426;48.372;10.888;2022-09-30T04:23:48;9.40;99.90
34153;DHT22;20426;48.372;10.888;2022-09-30T04:24:23;9.40;99.90
34153;DHT22;20426;48.372;10.888;2022-09-30T04:24:54;9.40;99.90
34153;DHT22;20426;48.372;10.888;2022-09-30T04:25:26;9.40;99.90
34153;DHT22;20426;48.372;10.888;2022-09-30T04:25:57;9.40;99.90
34153;DHT22;20426;48.372;10.888;2022-09-30T04:26:27;9.40;99.90
34153;DHT22;20426;48.372;10.888;2022-09-30T04:26:58;9.40;99.90
34153;DHT22;20426;48.372;10.888;2022-09-30T04:27:29;9.40;99.90
34153;DHT22;20426;48.372;10.888;2022-09-30T04:28:00;9.40;99.90
34153;DHT22;20426;48.372;10.888;2022-09-30T04:28:32;9.40;99.90
34153;DHT22;20426;48.372;10.888;2022-09-30T04:29:02;9.40;99.90
34153;DHT22;20426;48.372;10.888;2022-09-30T04:29:33;9.40;99.90
34153;DHT22;20426;48.372;10.888;2022-09-30T04:30:04;9.40;99.90
34153;DHT22;20426;48.372;10.888;2022-09-30T04:30:36;9.40;99.90
34153;DHT22;20426;48.372;10.888;2022-09-30T04:31:09;9.40;99.90
34153;DHT22;20426;48.372;10.888;2022-09-30T04:31:41;9.40;99.90
34153;DHT22;20426;48.372;10.888;2022-09-30T04:32:12;9.40;99.90
34153;DHT22;20426;48.372;10.888;2022-09-30T04:32:43;9.40;99.90
34153;DHT22;20426;48.372;10.888;2022-09-30T04:33:15;9.40;99.90
34153;DHT22;20426;48.372;10.888;2022-09-30T04:33:46;9.40;99.90
34153;DHT22;20426;48.372;10.888;2022-09-30T04:34:16;9.40;99.90
34153;DHT22;20426;48.372;10.888;2022-09-30T04:34:47;9.40;99.90
34153;DHT22;20426;48.372;10.888;2022-09-30T04:35:18;9.40;99.90
34153;DHT22;20426;48.372;10.888;2022-09-30T04:35:55;9.40;99.90
34153;DHT22;20426;48.372;10.888;2022-09-30T04:36:26;9.40;99.90
34153;DHT22;20426;48.372;10.888;2022-09-30T04:36:57;9.40;99.90
34153;DHT22;20426;48.372;10.888;2022-09-30T04:37:27;9.40;99.90
34153;DHT22;20426;48.372;10.888;2022-09-30T04:37:58;9.40;99.90
34153;DHT22;20426;48.372;10.888;2022-09-30T04:38:29;9.40;99.90
34153;DHT22;20426;48.372;10.888;2022-09-30T04:39:00;9.40;99.90